METAR Data
IDs: Format: Raw Decoded Include TAF

Data at: 0555 UTC 28 Sep 2022

KAUS 280553Z 00000KT 10SM CLR 15/11 A3016 RMK AO2 SLP205 T01500111 10294 20144 403280100 51010